Weather History for Lacon, IL

Change the Weather History Date:

Saturday, February 23, 2013

  Actual Average (KPIA) Record (KPIA)
Temperature  
Mean Temperature 22 °F 32 °F  
Max Temperature 29 °F 41 °F 64 °F (1930)
Min Temperature 16 °F 24 °F -9 °F (1910)
Degree Days  
Heating Degree Days 42 33  
Month to date heating degree days 837  
Since 1 July heating degree days 4358  
Cooling Degree Days 0 0  
Month to date cooling degree days 0  
Year to date cooling degree days 0  
Moisture  
Dew Point 17 °F    
Average Humidity 73    
Maximum Humidity 89    
Minimum Humidity 65    
Precipitation  
Precipitation 0.00 in 0.07 in 0.64 in (1985)
Month to date precipitation 1.40  
Year to date precipitation 3.18  
Snow  
Snow 0.00 in 0.20 in 5.30 in (1914)
Month to date snowfall 5.3  
Since 1 July snowfall 20.4  
Snow Depth -    
Sea Level Pressure  
Sea Level Pressure 29.97 in    
Wind  
Wind Speed 7 mph (WSW)    
Max Wind Speed 12 mph    
Max Gust Speed 18 mph    
Visibility 10 miles    
Events      
T = Trace of Precipitation, MM = Missing Value Source: NWS Daily Summary

Daily Weather History Graph

Daily Weather History Graph

Search for Another Location

Airport:

Trip Planner

Search our weather history database for the weather conditions in past years. The results will help you decide how hot, cold, wet, or windy it might be!

Date:

Astronomy

Feb. 23, 2013 Rise Set
Actual Time 6:40 AM CST 5:41 PM CST
Civil Twilight 6:12 AM CST 6:09 PM CST
Nautical Twilight 5:40 AM CST 6:41 PM CST
Astronomical Twilight 5:08 AM CST 7:13 PM CST
Moon 3:51 PM CST (2/23) 5:03 AM CST (2/23)
Length of Visible Light 11h 57m
Length of Day
11h 01m
Waxing Gibbous, 95% of the Moon is Illuminated
Feb 23
Waxing Gibbous
Feb 25
Full
Mar 4
Last Quarter
Mar 11
New
Mar 19
First Quarter

Hourly Weather History & Observations

Time (CST) Temp. Windchill Dew Point Humidity Pressure Visibility Wind Dir Wind Speed Gust Speed Precip Events Conditions
12:15 AM 25.0 °F 16.3 °F 18.3 °F 76% 29.97 in 10.0 mi WSW 8.1 mph - N/A   Scattered Clouds
12:35 AM 24.6 °F 17.7 °F 18.1 °F 76% 29.96 in 10.0 mi WSW 5.8 mph - N/A   Scattered Clouds
12:55 AM 24.8 °F 16.1 °F 18.3 °F 76% 29.97 in 10.0 mi SW 8.1 mph - N/A   Mostly Cloudy
1:15 AM 25.2 °F 16.5 °F 18.5 °F 76% 29.96 in 10.0 mi SW 8.1 mph - N/A   Overcast
1:35 AM 25.3 °F 19.7 °F 18.9 °F 76% 29.96 in 10.0 mi SW 4.6 mph - N/A   Overcast
1:55 AM 25.5 °F 15.5 °F 18.1 °F 74% 29.97 in 10.0 mi SW 10.4 mph - N/A   Overcast
2:15 AM 25.5 °F 14.9 °F 16.7 °F 69% 29.97 in 10.0 mi WSW 11.5 mph 18.4 mph N/A   Overcast
2:35 AM 25.2 °F 15.7 °F 16.5 °F 70% 29.96 in 10.0 mi WSW 9.2 mph - N/A   Overcast
2:55 AM 25.2 °F 16.5 °F 15.4 °F 67% 29.96 in 10.0 mi WSW 8.1 mph - N/A   Overcast
3:15 AM 24.8 °F 16.9 °F 16.3 °F 70% 29.96 in 10.0 mi SW 6.9 mph - N/A   Overcast
3:35 AM 24.8 °F 17.9 °F 16.3 °F 70% 29.96 in 10.0 mi WSW 5.8 mph - N/A   Overcast
3:55 AM 24.8 °F 16.9 °F 15.6 °F 68% 29.96 in 10.0 mi SW 6.9 mph - N/A   Overcast
4:15 AM 24.8 °F 17.9 °F 15.8 °F 69% 29.96 in 10.0 mi SW 5.8 mph - N/A   Overcast
4:35 AM 24.8 °F 16.1 °F 16.3 °F 70% 29.96 in 10.0 mi SW 8.1 mph - N/A   Overcast
4:55 AM 24.8 °F 16.9 °F 16.5 °F 71% 29.96 in 10.0 mi SW 6.9 mph 16.1 mph N/A   Overcast
5:15 AM 24.6 °F 15.1 °F 16.5 °F 71% 29.97 in 10.0 mi SW 9.2 mph - N/A   Overcast
5:35 AM 24.6 °F 16.7 °F 16.7 °F 72% 29.98 in 10.0 mi SW 6.9 mph - N/A   Overcast
5:55 AM 24.6 °F 16.7 °F 16.7 °F 72% 29.98 in 10.0 mi WSW 6.9 mph - N/A   Overcast
6:15 AM 24.4 °F 15.6 °F 17.2 °F 74% 29.98 in 10.0 mi WSW 8.1 mph - N/A   Overcast
6:35 AM 24.3 °F 17.3 °F 16.9 °F 73% 29.97 in 10.0 mi West 5.8 mph - N/A   Overcast
6:55 AM 24.1 °F 16.0 °F 16.7 °F 73% 29.98 in 10.0 mi WSW 6.9 mph - N/A   Overcast
7:15 AM 24.1 °F 16.0 °F 15.8 °F 71% 29.97 in 10.0 mi WSW 6.9 mph - N/A   Overcast
7:35 AM 24.1 °F 15.2 °F 15.8 °F 71% 29.97 in 10.0 mi WSW 8.1 mph - N/A   Overcast
7:55 AM 23.9 °F 15.8 °F 15.8 °F 71% 29.98 in 10.0 mi WSW 6.9 mph - N/A   Overcast
8:15 AM 24.3 °F 13.9 °F 15.8 °F 70% 29.98 in 10.0 mi WSW 10.4 mph - N/A   Overcast
8:35 AM 24.3 °F 17.3 °F 16.2 °F 71% 29.98 in 10.0 mi West 5.8 mph - N/A   Overcast
8:55 AM 24.4 °F 14.9 °F 16.5 °F 72% 29.98 in 10.0 mi WSW 9.2 mph - N/A   Overcast
9:15 AM 24.3 °F 14.6 °F 16.3 °F 72% 29.98 in 10.0 mi WSW 9.2 mph - N/A   Overcast
9:35 AM 24.4 °F 14.9 °F 16.0 °F 70% 29.99 in 10.0 mi WSW 9.2 mph - N/A   Overcast
9:55 AM 24.8 °F 16.1 °F 16.2 °F 70% 29.99 in 10.0 mi WSW 8.1 mph - N/A   Overcast
10:15 AM 24.8 °F 15.3 °F 15.8 °F 69% 29.99 in 10.0 mi WSW 9.2 mph - N/A   Overcast
10:35 AM 25.3 °F 16.7 °F 16.5 °F 69% 29.99 in 10.0 mi West 8.1 mph - N/A   Overcast
10:55 AM 25.7 °F 15.7 °F 16.5 °F 68% 29.98 in 10.0 mi SW 10.4 mph 16.1 mph N/A   Mostly Cloudy
11:15 AM 25.9 °F 17.4 °F 16.7 °F 68% 29.98 in 10.0 mi West 8.1 mph 16.1 mph N/A   Mostly Cloudy
11:35 AM 26.1 °F 16.2 °F 17.2 °F 69% 29.98 in 10.0 mi West 10.4 mph 17.3 mph N/A   Mostly Cloudy
11:55 AM 26.6 °F 16.2 °F 17.6 °F 69% 29.97 in 10.0 mi West 11.5 mph - N/A   Scattered Clouds
12:15 PM 26.4 °F 16.0 °F 18.0 °F 70% 29.96 in 10.0 mi West 11.5 mph - N/A   Scattered Clouds
12:35 PM 27.5 °F 18.6 °F 18.1 °F 68% 29.96 in 10.0 mi West 9.2 mph - N/A   Scattered Clouds
12:55 PM 27.5 °F 19.3 °F 18.3 °F 68% 29.96 in 10.0 mi West 8.1 mph - N/A   Clear
1:15 PM 27.9 °F 20.6 °F 18.5 °F 68% 29.96 in 10.0 mi WSW 6.9 mph - N/A   Clear
1:35 PM 28.0 °F 20.0 °F 19.0 °F 69% 29.96 in 10.0 mi West 8.1 mph - N/A   Clear
1:55 PM 28.0 °F 21.7 °F 18.9 °F 68% 29.96 in 10.0 mi WSW 5.8 mph - N/A   Clear
2:15 PM 28.9 °F 21.1 °F 19.4 °F 68% 29.96 in 10.0 mi SW 8.1 mph - N/A   Clear
2:35 PM 29.1 °F 24.1 °F 19.2 °F 67% 29.95 in 10.0 mi West 4.6 mph - N/A   Clear
2:55 PM 29.7 °F 23.7 °F 19.2 °F 65% 29.95 in 10.0 mi SW 5.8 mph - N/A   Clear
3:15 PM 29.3 °F 23.2 °F 19.0 °F 66% 29.94 in 10.0 mi WSW 5.8 mph - N/A   Clear
3:35 PM 29.8 °F 22.2 °F 19.8 °F 66% 29.95 in 10.0 mi WSW 8.1 mph - N/A   Clear
3:55 PM 29.1 °F 21.3 °F 19.4 °F 67% 29.95 in 10.0 mi WSW 8.1 mph - N/A   Clear
4:15 PM 29.3 °F 20.2 °F 19.4 °F 67% 29.95 in 10.0 mi SW 10.4 mph - N/A   Scattered Clouds
4:35 PM 28.9 °F 21.9 °F 19.0 °F 67% 29.95 in 10.0 mi SW 6.9 mph - N/A   Scattered Clouds
4:55 PM 28.9 °F 20.4 °F 19.2 °F 67% 29.96 in 10.0 mi SW 9.2 mph - N/A   Clear
5:15 PM 28.4 °F 19.7 °F 19.2 °F 69% 29.96 in 10.0 mi SW 9.2 mph - N/A   Clear
5:35 PM 27.5 °F 20.2 °F 19.2 °F 71% 29.97 in 10.0 mi SW 6.9 mph - N/A   Clear
5:55 PM 27.1 °F 18.9 °F 19.0 °F 72% 29.97 in 10.0 mi SW 8.1 mph - N/A   Clear
6:15 PM 26.6 °F 20.0 °F 18.9 °F 73% 29.97 in 10.0 mi SW 5.8 mph - N/A   Clear
6:35 PM 26.2 °F 20.7 °F 18.9 °F 74% 29.98 in 10.0 mi SSW 4.6 mph - N/A   Clear
6:55 PM 25.5 °F 18.7 °F 18.5 °F 75% 29.98 in 10.0 mi SSW 5.8 mph - N/A   Clear
7:15 PM 25.5 °F 18.7 °F 18.3 °F 74% 29.99 in 10.0 mi SW 5.8 mph - N/A   Clear
7:35 PM 25.3 °F 17.6 °F 18.3 °F 75% 29.98 in 10.0 mi SW 6.9 mph - N/A   Scattered Clouds
7:55 PM 24.8 °F 20.5 °F 18.0 °F 75% 29.98 in 10.0 mi SSW 3.5 mph - N/A   Clear
8:15 PM 24.3 °F 19.9 °F 17.8 °F 76% 29.99 in 10.0 mi SW 3.5 mph - N/A   Clear
8:35 PM 21.9 °F - 16.5 °F 80% 29.99 in 10.0 mi Calm Calm - N/A   Clear
8:55 PM 20.1 °F - 15.6 °F 83% 29.99 in 10.0 mi Calm Calm - N/A   Clear
9:15 PM 19.4 °F - 15.4 °F 85% 30.00 in 10.0 mi Calm Calm - N/A   Clear
9:35 PM 18.9 °F - 15.1 °F 85% 30.00 in 10.0 mi Calm Calm - N/A   Clear
9:55 PM 18.9 °F - 15.4 °F 87% 30.00 in 10.0 mi Calm Calm - N/A   Clear
10:15 PM 21.2 °F - 15.8 °F 80% 30.00 in 10.0 mi Calm Calm - N/A   Clear
10:35 PM 17.8 °F - 14.5 °F 87% 30.00 in 10.0 mi Calm Calm - N/A   Clear
10:55 PM 16.9 °F - 14.2 °F 89% 30.00 in 10.0 mi Calm Calm - N/A   Clear
11:15 PM 17.6 °F - 14.7 °F 88% 30.00 in 10.0 mi Calm Calm - N/A   Clear
11:35 PM 17.8 °F - 14.5 °F 87% 30.00 in 10.0 mi Calm Calm - N/A   Clear
11:55 PM 17.2 °F - 13.6 °F 86% 29.99 in 10.0 mi Calm Calm - N/A   Clear